createdAt,value
2019-03-11T00:00:38.602Z,37.00
2019-03-11T00:03:07.071Z,37.00
2019-03-11T00:05:35.953Z,37.10
2019-03-11T00:08:04.844Z,37.20
2019-03-11T00:10:33.309Z,37.40
2019-03-11T00:13:04.870Z,37.70
2019-03-11T00:15:33.381Z,37.80
2019-03-11T00:18:01.857Z,37.80
2019-03-11T00:20:30.405Z,38.00
2019-03-11T00:22:58.886Z,38.00
2019-03-11T00:25:27.375Z,38.10
2019-03-11T00:27:55.869Z,38.40
2019-03-11T00:30:24.329Z,38.50
2019-03-11T00:32:52.845Z,38.50
2019-03-11T00:35:21.390Z,38.40
2019-03-11T00:37:49.917Z,38.50
2019-03-11T00:40:18.537Z,38.50
2019-03-11T00:42:48.675Z,38.40
2019-03-11T00:45:17.220Z,38.30
2019-03-11T00:47:45.736Z,38.00
2019-03-11T00:50:14.265Z,37.90
2019-03-11T00:52:42.876Z,37.90
2019-03-11T00:55:12.892Z,37.80
2019-03-11T00:57:42.439Z,37.80
2019-03-11T01:00:34.327Z,37.80
2019-03-11T01:03:02.844Z,37.90
2019-03-11T01:05:31.395Z,37.80
2019-03-11T01:07:59.853Z,38.00
2019-03-11T01:10:28.373Z,39.00
2019-03-11T01:12:56.863Z,38.90
2019-03-11T01:15:25.363Z,39.00
2019-03-11T01:17:53.823Z,38.20
2019-03-11T01:20:22.484Z,35.70
2019-03-11T01:22:51.044Z,34.70
2019-03-11T01:25:19.549Z,33.00
2019-03-11T01:27:48.208Z,34.90
2019-03-11T01:30:17.714Z,34.20
2019-03-11T01:32:46.322Z,35.00
2019-03-11T01:35:14.901Z,34.90
2019-03-11T01:37:43.357Z,35.00
2019-03-11T01:40:17.210Z,35.00
2019-03-11T01:42:45.865Z,35.10
2019-03-11T01:45:16.471Z,35.20
2019-03-11T01:47:45.100Z,35.30
2019-03-11T01:50:14.781Z,35.60
2019-03-11T01:52:43.705Z,35.70
2019-03-11T01:55:13.618Z,35.80
2019-03-11T01:57:42.297Z,35.80
2019-03-11T02:00:16.524Z,35.90
2019-03-11T02:02:46.369Z,36.00
2019-03-11T02:05:15.116Z,36.20
2019-03-11T02:07:44.018Z,36.20
2019-03-11T02:10:18.196Z,36.40
2019-03-11T02:12:47.013Z,36.20
2019-03-11T02:15:16.925Z,36.20
2019-03-11T02:17:45.441Z,36.40
2019-03-11T02:20:18.023Z,36.30
2019-03-11T02:22:46.647Z,36.30
2019-03-11T02:25:15.661Z,36.40
2019-03-11T02:27:44.106Z,36.40
2019-03-11T02:30:15.159Z,36.40
2019-03-11T02:32:43.853Z,36.50
2019-03-11T02:35:12.382Z,36.60
2019-03-11T02:37:40.900Z,36.60
2019-03-11T02:40:14.406Z,36.70
2019-03-11T02:42:42.994Z,36.60
2019-03-11T02:45:11.542Z,36.60
2019-03-11T02:47:40.052Z,36.80
2019-03-11T02:50:09.980Z,37.00
2019-03-11T02:52:38.558Z,37.00
2019-03-11T02:55:07.575Z,37.10
2019-03-11T02:57:36.264Z,37.20
2019-03-11T03:00:20.309Z,37.30
2019-03-11T03:03:01.442Z,37.30
2019-03-11T03:05:37.316Z,37.40
2019-03-11T03:08:05.792Z,37.40
2019-03-11T03:10:34.407Z,37.50
2019-03-11T03:13:03.089Z,37.50
2019-03-11T03:15:31.774Z,37.50
2019-03-11T03:18:00.333Z,37.60
2019-03-11T03:20:28.920Z,37.60
2019-03-11T03:22:58.832Z,37.70
2019-03-11T03:25:33.813Z,37.80
2019-03-11T03:27:57.592Z,37.80
2019-03-11T03:30:26.663Z,37.80
2019-03-11T03:32:55.141Z,37.80
2019-03-11T03:35:23.696Z,37.80
2019-03-11T03:37:52.406Z,37.80
2019-03-11T03:40:20.957Z,37.90
2019-03-11T03:42:49.475Z,37.90
2019-03-11T03:45:26.437Z,38.00
2019-03-11T03:47:55.041Z,38.00
2019-03-11T03:50:25.504Z,38.10
2019-03-11T03:52:54.050Z,38.20
2019-03-11T03:55:22.743Z,38.20
2019-03-11T03:57:51.293Z,38.30
2019-03-11T04:00:19.798Z,38.30
2019-03-11T04:02:48.323Z,38.30
2019-03-11T04:05:16.828Z,38.40
2019-03-11T04:07:45.343Z,38.40
2019-03-11T04:10:18.852Z,38.40
2019-03-11T04:12:48.475Z,38.40
2019-03-11T04:15:17.142Z,38.50
2019-03-11T04:17:45.695Z,38.60
2019-03-11T04:20:20.666Z,38.50
2019-03-11T04:22:49.205Z,38.60
2019-03-11T04:25:19.131Z,38.60
2019-03-11T04:27:48.218Z,38.70
2019-03-11T04:30:19.663Z,38.70
2019-03-11T04:32:48.150Z,38.70
2019-03-11T04:35:16.733Z,38.80
2019-03-11T04:37:45.244Z,38.70
2019-03-11T04:40:15.054Z,38.70
2019-03-11T04:42:43.737Z,38.70
2019-03-11T04:45:14.264Z,38.80
2019-03-11T04:47:42.820Z,38.70
2019-03-11T04:50:14.073Z,38.80
2019-03-11T04:52:42.554Z,38.90
2019-03-11T04:55:15.460Z,38.90
2019-03-11T04:57:47.807Z,39.20
2019-03-11T05:00:22.402Z,39.30
2019-03-11T05:02:51.161Z,39.10
2019-03-11T05:05:19.696Z,39.60
2019-03-11T05:07:48.171Z,39.00
2019-03-11T05:10:16.698Z,39.00
2019-03-11T05:12:45.245Z,39.00
2019-03-11T05:15:14.441Z,39.70
2019-03-11T05:17:43.171Z,39.00
2019-03-11T05:20:13.180Z,39.10
2019-03-11T05:22:45.138Z,39.10
2019-03-11T05:25:15.053Z,39.10
2019-03-11T05:27:45.356Z,39.10
2019-03-11T05:30:16.419Z,39.10
2019-03-11T05:32:45.102Z,39.20
2019-03-11T05:35:15.413Z,39.10
2019-03-11T05:37:43.986Z,39.10
2019-03-11T05:40:14.847Z,39.70
2019-03-11T05:42:43.427Z,39.10
2019-03-11T05:45:16.830Z,39.80
2019-03-11T05:47:45.483Z,39.20
2019-03-11T05:50:15.091Z,39.10
2019-03-11T05:52:43.805Z,39.20
2019-03-11T05:55:13.418Z,39.20
2019-03-11T05:57:45.452Z,39.10
2019-03-11T06:00:40.906Z,39.20
2019-03-11T06:03:09.587Z,39.20
2019-03-11T06:05:38.264Z,39.20
2019-03-11T06:08:06.821Z,39.20
2019-03-11T06:10:35.399Z,39.20
2019-03-11T06:13:04.300Z,39.20
2019-03-11T06:15:34.617Z,39.20
2019-03-11T06:18:03.211Z,39.20
2019-03-11T06:20:33.426Z,39.90
2019-03-11T06:23:03.675Z,39.10
2019-03-11T06:25:32.362Z,39.10
2019-03-11T06:28:01.060Z,39.20
2019-03-11T06:30:29.601Z,39.20
2019-03-11T06:32:58.185Z,39.20
2019-03-11T06:35:26.800Z,39.20
2019-03-11T06:37:55.547Z,39.20
2019-03-11T06:40:25.791Z,39.20
2019-03-11T06:42:54.361Z,39.30
2019-03-11T06:45:23.079Z,39.30
2019-03-11T06:47:51.642Z,39.30
2019-03-11T06:50:20.116Z,39.30
2019-03-11T06:52:48.634Z,39.30
2019-03-11T06:55:17.107Z,39.40
2019-03-11T06:57:45.620Z,39.40
2019-03-11T07:00:18.306Z,39.40
2019-03-11T07:02:46.830Z,39.40
2019-03-11T07:05:20.643Z,39.50
2019-03-11T07:07:45.627Z,39.50
2019-03-11T07:10:17.492Z,39.50
2019-03-11T07:12:45.999Z,39.50
2019-03-11T07:15:15.918Z,39.60
2019-03-11T07:17:45.081Z,39.60
2019-03-11T07:20:16.226Z,39.60
2019-03-11T07:22:44.883Z,39.70
2019-03-11T07:25:13.603Z,40.40
2019-03-11T07:27:42.426Z,39.80
2019-03-11T07:30:18.960Z,39.80
2019-03-11T07:32:47.535Z,39.80
2019-03-11T07:35:16.241Z,39.90
2019-03-11T07:37:44.836Z,39.90
2019-03-11T07:40:15.642Z,39.80
2019-03-11T07:42:44.366Z,39.90
2019-03-11T07:45:14.041Z,39.80
2019-03-11T07:47:42.726Z,39.90
2019-03-11T07:50:12.777Z,39.90
2019-03-11T07:52:48.561Z,40.00
2019-03-11T07:55:17.307Z,40.50
2019-03-11T07:57:45.860Z,40.00
2019-03-11T08:00:15.789Z,40.00
2019-03-11T08:02:44.362Z,40.00
2019-03-11T08:05:12.851Z,40.00
2019-03-11T08:07:43.259Z,40.00
2019-03-11T08:10:20.698Z,40.00
2019-03-11T08:12:49.244Z,40.50
2019-03-11T08:15:17.829Z,40.00
2019-03-11T08:17:46.469Z,40.00
2019-03-11T08:20:16.144Z,40.00
2019-03-11T08:22:44.715Z,40.00
2019-03-11T08:25:14.781Z,40.10
2019-03-11T08:27:44.231Z,40.00
2019-03-11T08:30:20.724Z,40.10
2019-03-11T08:32:49.597Z,40.10
2019-03-11T08:35:18.171Z,40.10
2019-03-11T08:37:46.965Z,40.10
2019-03-11T08:40:19.817Z,40.10
2019-03-11T08:42:48.151Z,40.10
2019-03-11T08:45:18.223Z,40.10
2019-03-11T08:47:46.821Z,40.30
2019-03-11T08:50:16.175Z,40.00
2019-03-11T08:52:44.705Z,40.00
2019-03-11T08:55:13.703Z,40.00
2019-03-11T08:57:42.411Z,40.00
2019-03-11T09:00:16.803Z,40.00
2019-03-11T09:02:45.389Z,40.00
2019-03-11T09:05:13.864Z,40.00
2019-03-11T09:07:42.453Z,40.00
2019-03-11T09:10:13.703Z,40.00
2019-03-11T09:12:45.488Z,40.00
2019-03-11T09:15:23.053Z,40.00
2019-03-11T09:17:51.573Z,40.00
2019-03-11T09:20:20.123Z,40.00
2019-03-11T09:22:48.632Z,40.00
2019-03-11T09:25:24.349Z,40.00
2019-03-11T09:27:52.843Z,40.00
2019-03-11T09:30:22.668Z,40.00
2019-03-11T09:32:51.228Z,40.00
2019-03-11T09:35:20.052Z,40.00
2019-03-11T09:37:48.726Z,40.00
2019-03-11T09:40:18.529Z,39.90
2019-03-11T09:42:47.101Z,39.80
2019-03-11T09:45:19.890Z,39.70
2019-03-11T09:47:48.698Z,39.70
2019-03-11T09:50:18.367Z,39.70
2019-03-11T09:52:46.921Z,39.60
2019-03-11T09:55:17.979Z,39.60
2019-03-11T09:57:46.599Z,39.50
2019-03-11T10:00:21.338Z,39.40
2019-03-11T10:02:52.618Z,39.50
2019-03-11T10:05:20.122Z,39.30
2019-03-11T10:07:48.643Z,39.30
2019-03-11T10:10:19.338Z,39.40
2019-03-11T10:12:47.916Z,39.30
2019-03-11T10:15:18.576Z,39.30
2019-03-11T10:17:47.369Z,39.30
2019-03-11T10:20:19.736Z,39.20
2019-03-11T10:22:48.313Z,39.20
2019-03-11T10:25:18.219Z,39.20
2019-03-11T10:27:47.032Z,39.20
2019-03-11T10:30:22.976Z,39.20
2019-03-11T10:32:51.765Z,39.20
2019-03-11T10:35:31.965Z,39.20
2019-03-11T10:37:50.849Z,39.20
2019-03-11T10:40:22.091Z,39.20
2019-03-11T10:42:50.809Z,39.20
2019-03-11T10:45:30.609Z,39.10
2019-03-11T10:47:50.035Z,39.10
2019-03-11T10:50:19.693Z,39.10
2019-03-11T10:52:48.938Z,39.10
2019-03-11T10:55:20.384Z,39.10
2019-03-11T10:57:49.043Z,39.20
2019-03-11T11:00:29.408Z,39.10
2019-03-11T11:02:58.117Z,39.00
2019-03-11T11:05:26.597Z,39.10
2019-03-11T11:07:55.153Z,39.10
2019-03-11T11:10:23.632Z,39.10
2019-03-11T11:12:52.552Z,39.10
2019-03-11T11:15:23.065Z,39.10
2019-03-11T11:17:51.536Z,39.10
2019-03-11T11:20:21.072Z,39.10
2019-03-11T11:22:50.063Z,39.10
2019-03-11T11:25:20.095Z,39.00
2019-03-11T11:27:48.562Z,39.10
2019-03-11T11:30:24.744Z,39.00
2019-03-11T11:32:53.381Z,39.00
2019-03-11T11:35:22.091Z,39.00
2019-03-11T11:37:50.650Z,39.10
2019-03-11T11:40:22.431Z,39.10
2019-03-11T11:42:50.990Z,39.10
2019-03-11T11:45:21.328Z,39.70
2019-03-11T11:47:49.828Z,39.10
2019-03-11T11:50:20.354Z,39.10
2019-03-11T11:52:49.037Z,39.00
2019-03-11T11:55:18.954Z,38.90
2019-03-11T11:57:47.914Z,38.80
2019-03-11T12:00:23.980Z,38.80
2019-03-11T12:02:52.442Z,38.90
2019-03-11T12:05:21.152Z,38.90
2019-03-11T12:07:51.631Z,39.60
2019-03-11T12:10:28.012Z,38.80
2019-03-11T12:12:58.560Z,38.60
2019-03-11T12:15:27.486Z,38.80
2019-03-11T12:17:56.179Z,38.70
2019-03-11T12:20:27.863Z,38.70
2019-03-11T12:22:56.273Z,38.50
2019-03-11T12:25:24.763Z,38.50
2019-03-11T12:27:54.566Z,38.40
2019-03-11T12:30:26.363Z,38.30
2019-03-11T12:32:55.045Z,38.40
2019-03-11T12:35:23.605Z,38.70
2019-03-11T12:37:52.418Z,38.50
2019-03-11T12:40:21.102Z,38.60
2019-03-11T12:42:49.664Z,38.90
2019-03-11T12:45:19.525Z,38.80
2019-03-11T12:47:48.271Z,37.60
2019-03-11T12:50:30.167Z,37.00
2019-03-11T12:52:58.796Z,37.00
2019-03-11T12:55:27.378Z,37.80
2019-03-11T12:57:56.189Z,38.90
2019-03-11T13:00:25.889Z,38.40
2019-03-11T13:02:54.469Z,38.00
2019-03-11T13:05:22.946Z,37.30
2019-03-11T13:07:51.480Z,37.40
2019-03-11T13:10:22.354Z,37.60
2019-03-11T13:12:50.804Z,38.10
2019-03-11T13:15:19.336Z,38.90
2019-03-11T13:17:47.897Z,39.20
2019-03-11T13:20:41.714Z,38.00
2019-03-11T13:23:10.204Z,37.80
2019-03-11T13:25:38.669Z,38.60
2019-03-11T13:28:07.198Z,38.50
2019-03-11T13:30:36.041Z,38.80
2019-03-11T13:33:04.588Z,38.90
2019-03-11T13:35:33.154Z,39.00
2019-03-11T13:38:01.641Z,39.10
2019-03-11T13:40:30.223Z,39.20
2019-03-11T13:42:58.713Z,39.10
2019-03-11T13:45:27.241Z,39.00
2019-03-11T13:47:55.701Z,38.90
2019-03-11T13:50:24.225Z,38.80
2019-03-11T13:52:52.702Z,38.70
2019-03-11T13:55:21.186Z,38.50
2019-03-11T13:57:49.718Z,38.50
2019-03-11T14:00:19.592Z,38.80
2019-03-11T14:02:48.130Z,39.40
2019-03-11T14:05:16.620Z,38.90
2019-03-11T14:07:45.134Z,38.80
2019-03-11T14:10:14.803Z,38.80
2019-03-11T14:12:43.352Z,38.90
2019-03-11T14:15:17.156Z,38.90
2019-03-11T14:17:45.626Z,38.90
2019-03-11T14:20:14.801Z,38.90
2019-03-11T14:22:43.323Z,39.00
2019-03-11T14:25:13.155Z,39.10
2019-03-11T14:27:41.692Z,39.10
2019-03-11T14:30:13.475Z,39.20
2019-03-11T14:32:42.028Z,39.20
2019-03-11T14:35:12.056Z,39.00
2019-03-11T14:37:40.584Z,39.20
2019-03-11T14:40:16.248Z,39.30
2019-03-11T14:42:44.780Z,39.30
2019-03-11T14:45:15.783Z,39.30
2019-03-11T14:47:44.253Z,39.30
2019-03-11T14:50:13.957Z,39.20
2019-03-11T14:52:43.020Z,39.20
2019-03-11T14:55:12.926Z,39.50
2019-03-11T14:57:41.384Z,39.40
2019-03-11T15:00:18.142Z,39.80
2019-03-11T15:02:46.129Z,39.90
2019-03-11T15:05:15.666Z,40.20
2019-03-11T15:07:44.148Z,40.20
2019-03-11T15:10:18.908Z,40.20
2019-03-11T15:12:47.739Z,40.20
2019-03-11T15:15:21.136Z,40.30
2019-03-11T15:17:49.609Z,40.40
2019-03-11T15:20:18.242Z,40.30
2019-03-11T15:22:46.736Z,39.20
2019-03-11T15:25:15.937Z,36.80
2019-03-11T15:27:44.495Z,39.10
2019-03-11T15:30:16.118Z,38.90
2019-03-11T15:32:44.711Z,38.80
2019-03-11T15:35:13.249Z,39.00
2019-03-11T15:37:41.744Z,39.10
2019-03-11T15:40:12.916Z,39.10
2019-03-11T15:42:41.437Z,38.60
2019-03-11T15:45:15.015Z,38.40
2019-03-11T15:47:43.505Z,37.90
2019-03-11T15:50:15.087Z,38.50
2019-03-11T15:52:43.651Z,38.70
2019-03-11T15:55:16.437Z,38.10
2019-03-11T15:57:45.020Z,37.90
2019-03-11T16:00:16.690Z,37.90
2019-03-11T16:02:45.237Z,38.00
2019-03-11T16:05:13.748Z,38.40
2019-03-11T16:07:44.019Z,38.20
2019-03-11T16:10:17.085Z,38.50
2019-03-11T16:12:44.491Z,38.60
2019-03-11T16:15:13.756Z,38.70
2019-03-11T16:17:42.232Z,38.80
2019-03-11T16:20:22.051Z,39.00
2019-03-11T16:22:50.584Z,39.10
2019-03-11T16:25:19.033Z,39.30
2019-03-11T16:27:47.498Z,39.20
2019-03-11T16:30:19.331Z,39.80
2019-03-11T16:32:58.611Z,39.10
2019-03-11T16:35:18.502Z,39.00
2019-03-11T16:37:46.976Z,39.00
2019-03-11T16:40:15.504Z,38.90
2019-03-11T16:42:43.996Z,38.80
2019-03-11T16:45:14.524Z,38.80
2019-03-11T16:47:42.998Z,38.70
2019-03-11T16:50:14.722Z,38.70
2019-03-11T16:52:43.205Z,38.70
2019-03-11T16:55:14.353Z,38.60
2019-03-11T16:57:42.983Z,38.90
2019-03-11T17:00:21.760Z,39.00
2019-03-11T17:02:50.375Z,39.00
2019-03-11T17:05:19.081Z,39.00
2019-03-11T17:07:47.611Z,39.50
2019-03-11T17:10:21.227Z,39.80
2019-03-11T17:12:49.831Z,40.20
2019-03-11T17:15:18.417Z,40.50
2019-03-11T17:17:46.886Z,40.50
2019-03-11T17:20:17.764Z,40.80
2019-03-11T17:22:46.320Z,40.90
2019-03-11T17:25:15.089Z,41.00
2019-03-11T17:27:43.563Z,41.20
2019-03-11T17:30:15.404Z,41.10
2019-03-11T17:32:43.915Z,41.00
2019-03-11T17:35:12.383Z,41.00
2019-03-11T17:37:40.843Z,41.40
2019-03-11T17:40:12.253Z,41.40
2019-03-11T17:42:40.847Z,41.60
2019-03-11T17:45:11.752Z,41.40
2019-03-11T17:47:40.240Z,41.40
2019-03-11T17:50:14.552Z,41.50
2019-03-11T17:52:43.020Z,41.50
2019-03-11T17:55:12.022Z,41.50
2019-03-11T17:57:40.524Z,41.50
2019-03-11T18:00:25.184Z,41.50
2019-03-11T18:02:56.152Z,41.60
2019-03-11T18:05:24.839Z,41.50
2019-03-11T18:07:53.351Z,41.70
2019-03-11T18:10:21.941Z,41.70
2019-03-11T18:12:53.488Z,41.70
2019-03-11T18:15:22.087Z,41.60
2019-03-11T18:17:50.659Z,41.70
2019-03-11T18:20:40.161Z,41.60
2019-03-11T18:23:08.696Z,41.70
2019-03-11T18:25:37.232Z,41.70
2019-03-11T18:28:05.716Z,41.70
2019-03-11T18:30:37.657Z,41.70
2019-03-11T18:33:06.243Z,41.70
2019-03-11T18:35:34.695Z,41.70
2019-03-11T18:38:04.789Z,41.70
2019-03-11T18:40:33.317Z,41.60
2019-03-11T18:43:01.823Z,41.60
2019-03-11T18:45:30.414Z,41.80
2019-03-11T18:47:58.947Z,41.70
2019-03-11T18:50:27.585Z,41.90
2019-03-11T18:52:56.300Z,42.10
2019-03-11T18:55:24.862Z,42.20
2019-03-11T18:57:53.396Z,42.10
2019-03-11T19:00:23.410Z,42.10
2019-03-11T19:03:12.551Z,41.90
2019-03-11T19:05:41.189Z,41.90
2019-03-11T19:08:09.751Z,40.40
2019-03-11T19:10:41.512Z,38.50
2019-03-11T19:13:10.139Z,37.80
2019-03-11T19:15:38.611Z,38.00
2019-03-11T19:18:07.106Z,38.40
2019-03-11T19:20:35.696Z,38.50
2019-03-11T19:23:04.177Z,38.70
2019-03-11T19:25:35.796Z,38.60
2019-03-11T19:28:04.361Z,38.70
2019-03-11T19:30:56.567Z,38.60
2019-03-11T19:33:25.856Z,39.20
2019-03-11T19:35:54.349Z,38.70
2019-03-11T19:38:22.899Z,38.80
2019-03-11T19:40:51.396Z,38.80
2019-03-11T19:43:19.938Z,38.80
2019-03-11T19:45:48.509Z,38.80
2019-03-11T19:48:17.087Z,38.70
2019-03-11T19:50:45.674Z,38.70
2019-03-11T19:53:14.697Z,38.70
2019-03-11T19:55:47.629Z,38.80
2019-03-11T19:58:16.358Z,38.80
2019-03-11T20:00:44.896Z,39.30
2019-03-11T20:03:23.647Z,38.90
2019-03-11T20:05:43.615Z,38.70
2019-03-11T20:08:12.123Z,38.80
2019-03-11T20:10:40.694Z,38.80
2019-03-11T20:13:09.159Z,38.80
2019-03-11T20:15:37.789Z,38.80
2019-03-11T20:18:06.328Z,38.70
2019-03-11T20:20:34.929Z,38.70
2019-03-11T20:23:03.497Z,38.70
2019-03-11T20:25:36.835Z,39.20
2019-03-11T20:28:05.310Z,39.20
2019-03-11T20:30:33.795Z,39.30
2019-03-11T20:33:03.957Z,39.50
2019-03-11T20:35:32.367Z,39.40
2019-03-11T20:38:01.075Z,39.60
2019-03-11T20:40:29.661Z,39.50
2019-03-11T20:42:58.327Z,39.60
2019-03-11T20:45:26.832Z,40.40
2019-03-11T20:47:55.314Z,39.60
2019-03-11T20:50:27.066Z,39.70
2019-03-11T20:52:55.602Z,39.70
2019-03-11T20:55:24.241Z,39.80
2019-03-11T20:57:52.869Z,39.80
2019-03-11T21:00:22.593Z,39.90
2019-03-11T21:02:51.301Z,39.90
2019-03-11T21:05:41.012Z,40.00
2019-03-11T21:08:09.935Z,40.00
2019-03-11T21:10:38.493Z,40.00
2019-03-11T21:13:06.978Z,40.00
2019-03-11T21:15:35.524Z,40.00
2019-03-11T21:18:04.029Z,40.20
2019-03-11T21:20:32.594Z,40.30
2019-03-11T21:23:01.030Z,40.10
2019-03-11T21:25:32.787Z,40.30
2019-03-11T21:28:01.311Z,40.30
2019-03-11T21:30:29.823Z,41.00
2019-03-11T21:32:58.448Z,40.40
2019-03-11T21:35:27.072Z,40.30
2019-03-11T21:37:55.597Z,40.30
2019-03-11T21:40:24.525Z,40.20
2019-03-11T21:42:53.179Z,40.20
2019-03-11T21:45:33.427Z,40.20
2019-03-11T21:47:55.102Z,40.10
2019-03-11T21:50:24.937Z,40.20
2019-03-11T21:52:53.373Z,40.10
2019-03-11T21:55:21.881Z,40.10
2019-03-11T21:57:50.523Z,40.10
2019-03-11T22:00:41.345Z,40.10
2019-03-11T22:03:09.856Z,40.00
2019-03-11T22:05:38.330Z,40.10
2019-03-11T22:08:06.864Z,40.00
2019-03-11T22:10:35.823Z,40.00
2019-03-11T22:13:04.355Z,40.00
2019-03-11T22:15:32.854Z,40.00
2019-03-11T22:18:01.369Z,40.00
2019-03-11T22:20:29.847Z,40.00
2019-03-11T22:22:58.374Z,40.00
2019-03-11T22:25:26.862Z,40.00
2019-03-11T22:27:55.899Z,40.00
2019-03-11T22:30:25.169Z,40.00
2019-03-11T22:32:53.780Z,39.90
2019-03-11T22:35:25.404Z,39.90
2019-03-11T22:37:53.923Z,40.00
2019-03-11T22:40:22.426Z,39.90
2019-03-11T22:42:50.963Z,40.00
2019-03-11T22:45:21.143Z,39.90
2019-03-11T22:47:50.350Z,39.90
2019-03-11T22:50:19.111Z,39.90
2019-03-11T22:52:47.749Z,39.90
2019-03-11T22:55:16.353Z,39.90
2019-03-11T22:57:44.868Z,39.90
2019-03-11T23:03:14.789Z,40.10
2019-03-11T23:05:57.019Z,40.20
2019-03-11T23:08:13.440Z,40.30
2019-03-11T23:10:41.917Z,40.40
2019-03-11T23:13:10.428Z,40.40
2019-03-11T23:15:38.896Z,40.40
2019-03-11T23:18:07.482Z,40.40
2019-03-11T23:20:35.953Z,40.30
2019-03-11T23:23:04.429Z,40.40
2019-03-11T23:25:32.922Z,40.30
2019-03-11T23:28:01.435Z,40.30
2019-03-11T23:30:29.909Z,40.20
2019-03-11T23:32:58.356Z,40.30
2019-03-11T23:35:26.877Z,40.20
2019-03-11T23:37:55.345Z,40.20
2019-03-11T23:40:23.920Z,40.30
2019-03-11T23:42:52.468Z,40.30
2019-03-11T23:45:21.028Z,40.30
2019-03-11T23:47:49.528Z,40.20
2019-03-11T23:50:19.405Z,40.30
2019-03-11T23:52:48.281Z,40.20
2019-03-11T23:55:16.892Z,40.10
2019-03-11T23:57:45.439Z,40.30
